SARE/RES METAR and TAF weather

Enter ICAO airport designator
Station Type Date Time Source
SARE METAR 2020/09/22 17:00 UTC NOAA

SARE 221700Z 13007KT 090V160 6000 NSC 25/M01 Q1018


Station Type Date Time Source
SARE Decoded METAR 2020/09/22 17:00 UTC NOAA

Resistencia Aero., Argentina (SARE) 27-27S 059-03W 52M
Sep 22, 2020 - 01:00 PM EDT / 2020.09.22 1700 UTC
Wind: from the SE (130 degrees) at 8 MPH (7 KT) (direction variable):0
Visibility: 3 mile(s):0
Temperature: 77 F (25 C)
Dew Point: 30 F (-1 C)
Relative Humidity: 17%
Pressure (altimeter): 30.06 in. Hg (1018 hPa)
ob: SARE 221700Z 13007KT 090V160 6000 NSC 25/M01 Q1018
cycle: 17

Station Type Date Time Source
SARE TAF 2020/09/22 12:21 UTC NOAA

TAF TAF SARE 221100Z 2212/2312 11005KT CAVOK TX27/2218Z TN08/2310Z

Example: see airport list